createdAt,value
2022-08-14T00:02:26.937Z,97263.56
2022-08-14T00:04:56.168Z,97249.94
2022-08-14T00:07:24.049Z,97241.47
2022-08-14T00:09:55.623Z,97236.78
2022-08-14T00:12:33.437Z,97241.66
2022-08-14T00:15:18.320Z,97238.41
2022-08-14T00:17:53.058Z,97233.75
2022-08-14T00:20:31.166Z,97229.66
2022-08-14T00:23:12.218Z,97232.06
2022-08-14T00:26:06.260Z,97230.41
2022-08-14T00:28:37.055Z,97228.72
2022-08-14T00:31:08.209Z,97231.69
2022-08-14T00:33:51.857Z,97227.00
2022-08-14T00:36:39.386Z,97223.16
2022-08-14T00:39:18.651Z,97213.06
2022-08-14T00:41:48.164Z,97209.50
2022-08-14T00:44:21.283Z,97205.91
2022-08-14T00:47:02.495Z,97198.56
2022-08-14T00:49:38.342Z,97202.56
2022-08-14T00:52:18.095Z,97199.81
2022-08-14T00:54:57.787Z,97199.53
2022-08-14T00:57:33.673Z,97211.47
2022-08-14T01:00:34.420Z,97209.84
2022-08-14T01:03:03.368Z,97203.56
2022-08-14T01:05:50.757Z,97205.72
2022-08-14T01:08:51.576Z,97200.03
2022-08-14T01:11:19.429Z,97194.06
2022-08-14T01:13:56.123Z,97194.34
2022-08-14T01:16:31.476Z,97190.50
2022-08-14T01:19:19.742Z,97187.47
2022-08-14T01:21:52.701Z,97184.44
2022-08-14T01:24:30.361Z,97185.22
2022-08-14T01:27:00.280Z,97176.47
2022-08-14T01:30:00.578Z,97187.84
2022-08-14T01:32:25.874Z,97186.47
2022-08-14T01:35:19.619Z,97177.44
2022-08-14T01:37:54.803Z,97175.28
2022-08-14T01:40:36.658Z,97173.06
2022-08-14T01:43:15.897Z,97170.63
2022-08-14T01:46:06.302Z,97169.50
2022-08-14T01:48:37.348Z,97167.88
2022-08-14T01:51:19.178Z,97159.16
2022-08-14T01:53:55.523Z,97154.78
2022-08-14T01:56:39.529Z,97159.34
2022-08-14T01:59:19.482Z,97155.25
2022-08-14T02:01:58.374Z,97162.13
2022-08-14T02:04:40.601Z,97159.88
2022-08-14T02:07:27.267Z,97161.72
2022-08-14T02:10:15.680Z,97155.66
2022-08-14T02:12:54.182Z,97154.78
2022-08-14T02:15:26.316Z,97154.16
2022-08-14T02:17:54.158Z,97145.72
2022-08-14T02:20:23.830Z,97150.81
2022-08-14T02:22:54.830Z,97150.19
2022-08-14T02:25:23.733Z,97138.16
2022-08-14T02:28:24.384Z,97137.34
2022-08-14T02:30:44.733Z,97129.22
2022-08-14T02:33:13.466Z,97126.75
2022-08-14T02:35:43.593Z,97123.97
2022-08-14T02:38:29.579Z,97125.03
2022-08-14T02:40:59.311Z,97123.06
2022-08-14T02:43:37.218Z,97112.19
2022-08-14T02:46:20.532Z,97107.25
2022-08-14T02:49:04.611Z,97110.75
2022-08-14T02:51:36.371Z,97108.91
2022-08-14T02:54:07.944Z,97111.34
2022-08-14T02:57:15.169Z,97103.19
2022-08-14T02:59:33.796Z,97094.81
2022-08-14T03:02:04.523Z,97092.34
2022-08-14T03:04:32.932Z,97085.78
2022-08-14T03:07:07.747Z,97089.25
2022-08-14T03:10:24.770Z,97083.28
2022-08-14T03:12:31.500Z,97081.38
2022-08-14T03:15:16.288Z,97093.81
2022-08-14T03:17:57.351Z,97089.63
2022-08-14T03:20:30.434Z,97084.66
2022-08-14T03:23:03.279Z,97079.41
2022-08-14T03:25:37.821Z,97070.38
2022-08-14T03:28:14.835Z,97066.81
2022-08-14T03:30:59.782Z,97066.28
2022-08-14T03:33:38.007Z,97069.69
2022-08-14T03:37:39.213Z,97066.84
2022-08-14T03:39:13.317Z,97065.47
2022-08-14T03:41:44.151Z,97064.91
2022-08-14T03:45:25.271Z,97062.97
2022-08-14T03:47:00.191Z,97065.09
2022-08-14T03:49:31.003Z,97063.97
2022-08-14T03:52:00.653Z,97067.16
2022-08-14T03:54:29.625Z,97062.50
2022-08-14T03:57:02.393Z,97063.78
2022-08-14T03:59:35.375Z,97065.94
2022-08-14T04:02:04.479Z,97066.94
2022-08-14T04:04:33.580Z,97053.28
2022-08-14T04:07:02.000Z,97061.19
2022-08-14T04:09:29.751Z,97065.78
2022-08-14T04:11:59.976Z,97065.44
2022-08-14T04:14:29.814Z,97061.13
2022-08-14T04:16:57.838Z,97059.72
2022-08-14T04:19:28.360Z,97062.09
2022-08-14T04:22:03.654Z,97065.31
2022-08-14T04:24:37.792Z,97048.97
2022-08-14T04:27:12.113Z,97051.44
2022-08-14T04:29:44.956Z,97048.72
2022-08-14T04:32:58.578Z,97044.63
2022-08-14T04:35:07.862Z,97038.63
2022-08-14T04:37:57.176Z,97049.72
2022-08-14T04:40:43.631Z,97050.75
2022-08-14T04:43:38.756Z,97043.72
2022-08-14T04:46:55.709Z,97055.13
2022-08-14T04:49:04.145Z,97043.53
2022-08-14T04:51:37.551Z,97051.66
2022-08-14T04:54:17.248Z,97052.00
2022-08-14T04:56:45.542Z,97052.09
2022-08-14T04:59:13.493Z,97057.81
2022-08-14T05:01:48.017Z,97057.81
2022-08-14T05:04:22.998Z,97050.84
2022-08-14T05:06:55.147Z,97053.06
2022-08-14T05:09:29.412Z,97055.34
2022-08-14T05:12:00.764Z,97052.13
2022-08-14T05:14:54.549Z,97047.84
2022-08-14T05:17:32.176Z,97053.84
2022-08-14T05:21:04.772Z,97064.53
2022-08-14T05:23:01.442Z,97062.13
2022-08-14T05:25:30.677Z,97055.63
2022-08-14T05:28:20.536Z,97048.16
2022-08-14T05:30:55.372Z,97054.16
2022-08-14T05:33:28.536Z,97050.94
2022-08-14T05:36:02.666Z,97050.47
2022-08-14T05:38:36.970Z,97036.97
2022-08-14T05:41:13.452Z,97037.03
2022-08-14T05:43:47.661Z,97037.91
2022-08-14T05:46:18.974Z,97040.38
2022-08-14T05:48:53.606Z,97037.75
2022-08-14T05:51:23.446Z,97030.47
2022-08-14T05:53:56.997Z,97036.75
2022-08-14T05:56:29.766Z,97042.50
2022-08-14T05:58:57.569Z,97044.72
2022-08-14T06:01:31.572Z,97040.91
2022-08-14T06:03:59.722Z,97032.03
2022-08-14T06:06:28.093Z,97039.94
2022-08-14T06:08:56.036Z,97041.31
2022-08-14T06:11:30.728Z,97033.78
2022-08-14T06:13:59.491Z,97035.72
2022-08-14T06:16:27.559Z,97035.25
2022-08-14T06:18:59.430Z,97026.31
2022-08-14T06:21:27.747Z,97033.47
2022-08-14T06:23:57.495Z,97029.72
2022-08-14T06:26:29.954Z,97025.41
2022-08-14T06:28:57.912Z,97022.75
2022-08-14T06:31:25.781Z,97023.88
2022-08-14T06:35:11.453Z,97026.09
2022-08-14T06:36:41.480Z,97010.97
2022-08-14T06:39:09.994Z,97015.28
2022-08-14T06:41:57.987Z,97003.66
2022-08-14T06:44:30.742Z,96998.81
2022-08-14T06:47:02.983Z,96994.50
2022-08-14T06:49:42.750Z,96985.06
2022-08-14T06:52:15.132Z,96991.63
2022-08-14T06:54:45.505Z,96993.34
2022-08-14T06:57:13.985Z,96987.69
2022-08-14T06:59:42.834Z,96983.06
2022-08-14T07:02:30.222Z,96980.13
2022-08-14T07:05:21.110Z,96978.81
2022-08-14T07:07:51.959Z,96974.78
2022-08-14T07:10:24.811Z,96974.22
2022-08-14T07:13:01.255Z,96965.03
2022-08-14T07:15:32.466Z,96971.03
2022-08-14T07:18:03.758Z,96973.22
2022-08-14T07:20:38.059Z,96974.63
2022-08-14T07:23:10.883Z,96973.81
2022-08-14T07:25:48.830Z,96978.78
2022-08-14T07:28:43.177Z,96988.06
2022-08-14T07:31:12.761Z,96984.25
2022-08-14T07:33:50.543Z,96987.53
2022-08-14T07:36:30.285Z,96995.72
2022-08-14T07:39:03.079Z,96999.25
2022-08-14T07:41:42.391Z,97002.78
2022-08-14T07:44:29.489Z,96998.19
2022-08-14T07:47:01.815Z,96997.66
2022-08-14T07:49:34.175Z,96993.34
2022-08-14T07:52:03.414Z,96994.97
2022-08-14T07:54:31.714Z,96998.50
2022-08-14T07:57:11.881Z,96996.63
2022-08-14T07:59:43.735Z,96989.31
2022-08-14T08:02:18.628Z,96993.66
2022-08-14T08:04:59.286Z,96992.31
2022-08-14T08:07:31.417Z,96991.22
2022-08-14T08:10:46.261Z,96983.84
2022-08-14T08:13:22.143Z,96982.19
2022-08-14T08:15:57.310Z,96977.81
2022-08-14T08:18:27.693Z,96981.09
2022-08-14T08:20:59.763Z,96979.19
2022-08-14T08:23:40.779Z,96981.06
2022-08-14T08:26:18.792Z,96986.81
2022-08-14T08:28:57.985Z,96970.97
2022-08-14T08:31:32.924Z,96981.88
2022-08-14T08:34:06.343Z,96964.38
2022-08-14T08:36:42.029Z,96966.00
2022-08-14T08:39:22.440Z,96974.19
2022-08-14T08:41:53.759Z,96986.16
2022-08-14T08:44:32.172Z,96977.13
2022-08-14T08:47:06.759Z,96978.72
2022-08-14T08:49:52.649Z,96966.94
2022-08-14T08:52:31.525Z,96962.84
2022-08-14T08:55:04.308Z,96958.19
2022-08-14T08:57:37.818Z,96963.34
2022-08-14T09:00:25.114Z,96958.09
2022-08-14T09:03:11.478Z,96962.97
2022-08-14T09:06:03.868Z,96960.72
2022-08-14T09:08:37.409Z,96954.94
2022-08-14T09:11:19.074Z,96948.34
2022-08-14T09:13:53.361Z,96935.41
2022-08-14T09:16:25.504Z,96937.34
2022-08-14T09:18:55.273Z,96943.56
2022-08-14T09:21:24.439Z,96944.63
2022-08-14T09:24:29.600Z,96950.03
2022-08-14T09:26:49.190Z,96938.50
2022-08-14T09:29:22.905Z,96945.00
2022-08-14T09:31:57.838Z,96952.63
2022-08-14T09:34:58.799Z,96952.03
2022-08-14T09:38:00.464Z,96948.13
2022-08-14T09:40:51.294Z,96954.94
2022-08-14T09:44:06.963Z,96954.38
2022-08-14T09:46:35.658Z,96938.72
2022-08-14T09:49:07.419Z,96943.88
2022-08-14T09:51:51.790Z,96936.72
2022-08-14T09:54:39.979Z,96930.53
2022-08-14T09:57:10.288Z,96917.91
2022-08-14T09:59:48.893Z,96919.78
2022-08-14T10:02:31.814Z,96928.16
2022-08-14T10:05:11.431Z,96921.22
2022-08-14T10:07:53.902Z,96909.59
2022-08-14T10:10:38.311Z,96893.94
2022-08-14T10:13:21.454Z,96887.25
2022-08-14T10:15:52.474Z,96892.19
2022-08-14T10:18:26.324Z,96887.16
2022-08-14T10:20:58.115Z,96887.91
2022-08-14T10:23:42.860Z,96879.31
2022-08-14T10:26:11.918Z,96868.19
2022-08-14T10:29:18.789Z,96858.25
2022-08-14T10:31:45.322Z,96866.84
2022-08-14T10:34:29.119Z,96857.94
2022-08-14T10:37:14.510Z,96850.97
2022-08-14T10:40:05.532Z,96834.47
2022-08-14T10:42:43.664Z,96837.59
2022-08-14T10:45:25.878Z,96836.72
2022-08-14T10:48:08.819Z,96830.09
2022-08-14T10:50:46.497Z,96836.31
2022-08-14T10:53:14.715Z,96829.41
2022-08-14T10:55:45.387Z,96825.75
2022-08-14T10:58:14.803Z,96837.16
2022-08-14T11:00:57.181Z,96830.44
2022-08-14T11:03:26.755Z,96836.13
2022-08-14T11:06:22.416Z,96822.50
2022-08-14T11:08:53.003Z,96821.94
2022-08-14T11:11:28.552Z,96820.00
2022-08-14T11:14:06.636Z,96836.16
2022-08-14T11:16:39.378Z,96827.00
2022-08-14T11:19:10.625Z,96813.19
2022-08-14T11:21:41.295Z,96823.53
2022-08-14T11:24:53.854Z,96814.41
2022-08-14T11:27:05.717Z,96816.13
2022-08-14T11:29:36.173Z,96825.66
2022-08-14T11:32:06.747Z,96821.47
2022-08-14T11:34:38.639Z,96831.56
2022-08-14T11:37:18.686Z,96823.53
2022-08-14T11:39:51.672Z,96826.84
2022-08-14T11:42:57.775Z,96825.94
2022-08-14T11:45:16.882Z,96830.69
2022-08-14T11:48:13.471Z,96817.16
2022-08-14T11:50:37.960Z,96809.94
2022-08-14T11:53:32.872Z,96802.06
2022-08-14T11:56:06.208Z,96801.94
2022-08-14T11:58:38.778Z,96797.63
2022-08-14T12:01:09.568Z,96796.88
2022-08-14T12:03:57.084Z,96777.66
2022-08-14T12:06:28.644Z,96788.63
2022-08-14T12:09:03.757Z,96783.22
2022-08-14T12:11:44.344Z,96782.28
2022-08-14T12:14:34.670Z,96775.53
2022-08-14T12:17:11.896Z,96778.34
2022-08-14T12:19:53.880Z,96779.22
2022-08-14T12:22:44.230Z,96757.91
2022-08-14T12:25:21.634Z,96772.28
2022-08-14T12:28:01.481Z,96763.09
2022-08-14T12:30:43.405Z,96757.31
2022-08-14T12:33:32.896Z,96744.94
2022-08-14T12:36:20.976Z,96746.09
2022-08-14T12:38:54.091Z,96751.59
2022-08-14T12:41:28.127Z,96753.09
2022-08-14T12:44:06.152Z,96748.75
2022-08-14T12:46:43.741Z,96745.66
2022-08-14T12:49:17.819Z,96743.44
2022-08-14T12:51:58.337Z,96742.66
2022-08-14T12:54:29.165Z,96737.44
2022-08-14T12:57:19.298Z,96742.00
2022-08-14T12:59:49.595Z,96738.25
2022-08-14T13:02:27.467Z,96730.81
2022-08-14T13:04:56.951Z,96733.56
2022-08-14T13:07:32.932Z,96721.41
2022-08-14T13:10:45.638Z,96711.84
2022-08-14T13:13:13.074Z,96709.19
2022-08-14T13:15:44.346Z,96708.19
2022-08-14T13:18:15.943Z,96699.09
2022-08-14T13:20:51.853Z,96699.56
2022-08-14T13:23:30.704Z,96693.34
2022-08-14T13:26:01.158Z,96694.59
2022-08-14T13:28:34.463Z,96688.34
2022-08-14T13:31:13.160Z,96689.13
2022-08-14T13:33:41.395Z,96677.69
2022-08-14T13:36:11.105Z,96679.81
2022-08-14T13:38:53.692Z,96677.03
2022-08-14T13:41:28.026Z,96681.28
2022-08-14T13:44:00.694Z,96666.81
2022-08-14T13:46:28.662Z,96663.75
2022-08-14T13:48:59.904Z,96655.81
2022-08-14T13:51:36.325Z,96660.81
2022-08-14T13:54:10.988Z,96655.44
2022-08-14T13:56:40.820Z,96649.28
2022-08-14T13:59:10.901Z,96652.31
2022-08-14T14:01:44.711Z,96651.78
2022-08-14T14:04:19.777Z,96645.69
2022-08-14T14:06:52.163Z,96642.22
2022-08-14T14:09:32.598Z,96637.59
2022-08-14T14:12:37.832Z,96639.41
2022-08-14T14:15:05.442Z,96634.25
2022-08-14T14:17:38.944Z,96634.09
2022-08-14T14:20:34.327Z,96627.69
2022-08-14T14:23:03.521Z,96622.47
2022-08-14T14:25:49.336Z,96621.16
2022-08-14T14:28:25.023Z,96624.34
2022-08-14T14:30:57.437Z,96622.78
2022-08-14T14:33:47.841Z,96615.81
2022-08-14T14:36:24.268Z,96615.28
2022-08-14T14:38:58.214Z,96613.78
2022-08-14T14:41:38.099Z,96613.97
2022-08-14T14:44:08.948Z,96608.16
2022-08-14T14:46:41.577Z,96610.50
2022-08-14T14:49:14.648Z,96613.38
2022-08-14T14:51:51.451Z,96604.31
2022-08-14T14:54:31.871Z,96599.75
2022-08-14T14:57:08.975Z,96602.25
2022-08-14T14:59:38.247Z,96590.53
2022-08-14T15:02:09.321Z,96590.53
2022-08-14T15:04:43.668Z,96587.16
2022-08-14T15:07:12.484Z,96572.56
2022-08-14T15:09:41.108Z,96583.13
2022-08-14T15:12:34.753Z,96577.50
2022-08-14T15:14:58.238Z,96575.22
2022-08-14T15:17:41.357Z,96567.00
2022-08-14T15:20:17.330Z,96572.72
2022-08-14T15:23:01.126Z,96569.38
2022-08-14T15:25:42.024Z,96575.91
2022-08-14T15:28:12.766Z,96571.66
2022-08-14T15:30:42.870Z,96576.28
2022-08-14T15:33:14.253Z,96569.84
2022-08-14T15:35:44.873Z,96566.25
2022-08-14T15:38:17.886Z,96571.34
2022-08-14T15:40:51.322Z,96576.88
2022-08-14T15:43:19.544Z,96574.50
2022-08-14T15:45:51.509Z,96581.53
2022-08-14T15:48:22.182Z,96582.94
2022-08-14T15:50:50.976Z,96581.59
2022-08-14T15:53:23.484Z,96573.41
2022-08-14T15:55:53.448Z,96572.06
2022-08-14T15:58:22.939Z,96572.09
2022-08-14T16:01:12.206Z,96573.94
2022-08-14T16:03:46.378Z,96575.44
2022-08-14T16:06:18.732Z,96570.25
2022-08-14T16:08:58.683Z,96570.72
2022-08-14T16:11:33.083Z,96568.97
2022-08-14T16:14:01.823Z,96567.16
2022-08-14T16:16:34.955Z,96563.59
2022-08-14T16:19:21.239Z,96567.06
2022-08-14T16:22:01.240Z,96563.63
2022-08-14T16:25:02.458Z,96574.13
2022-08-14T16:27:38.802Z,96564.44
2022-08-14T16:33:08.695Z,96563.97
2022-08-14T16:35:59.605Z,96560.16
2022-08-14T16:38:47.981Z,96551.97
2022-08-14T16:41:17.136Z,96558.03
2022-08-14T16:43:45.973Z,96556.53
2022-08-14T16:46:22.396Z,96551.25
2022-08-14T16:48:56.953Z,96547.19
2022-08-14T16:51:36.243Z,96550.34
2022-08-14T16:54:33.701Z,96546.28
2022-08-14T16:57:13.744Z,96547.91
2022-08-14T16:59:52.884Z,96539.69
2022-08-14T17:02:42.899Z,96550.28
2022-08-14T17:05:25.138Z,96546.44
2022-08-14T17:08:32.761Z,96551.38
2022-08-14T17:11:10.772Z,96558.25
2022-08-14T17:13:58.937Z,96566.38
2022-08-14T17:16:37.421Z,96555.69
2022-08-14T17:19:09.830Z,96560.31
2022-08-14T17:21:47.251Z,96562.06
2022-08-14T17:24:56.588Z,96554.84
2022-08-14T17:27:10.839Z,96551.03
2022-08-14T17:29:56.272Z,96564.13
2022-08-14T17:32:44.553Z,96558.88
2022-08-14T17:35:58.754Z,96555.63
2022-08-14T17:38:33.669Z,96552.59
2022-08-14T17:41:27.090Z,96543.88
2022-08-14T17:44:20.090Z,96556.84
2022-08-14T17:46:55.126Z,96558.97
2022-08-14T17:49:31.960Z,96559.34
2022-08-14T17:52:07.635Z,96561.78
2022-08-14T17:54:52.690Z,96561.94
2022-08-14T17:57:29.486Z,96565.00
2022-08-14T18:00:06.030Z,96559.19
2022-08-14T18:02:37.834Z,96559.69
2022-08-14T18:05:09.310Z,96562.78
2022-08-14T18:08:00.241Z,96556.31
2022-08-14T18:10:53.186Z,96562.25
2022-08-14T18:13:16.879Z,96556.91
2022-08-14T18:15:51.122Z,96559.84
2022-08-14T18:18:19.913Z,96557.72
2022-08-14T18:21:40.420Z,96553.66
2022-08-14T18:23:42.811Z,96555.91
2022-08-14T18:26:36.788Z,96552.34
2022-08-14T18:29:01.429Z,96561.25
2022-08-14T18:31:41.936Z,96560.91
2022-08-14T18:34:31.697Z,96568.66
2022-08-14T18:37:17.593Z,96563.59
2022-08-14T18:40:02.757Z,96567.13
2022-08-14T18:42:35.223Z,96566.97
2022-08-14T18:45:15.263Z,96569.03
2022-08-14T18:48:14.105Z,96574.50
2022-08-14T18:50:46.120Z,96577.88
2022-08-14T18:53:15.248Z,96576.25
2022-08-14T18:55:54.493Z,96582.72
2022-08-14T18:58:44.504Z,96577.66
2022-08-14T19:01:29.770Z,96580.56
2022-08-14T19:04:01.549Z,96581.31
2022-08-14T19:06:40.141Z,96581.44
2022-08-14T19:09:08.810Z,96587.22
2022-08-14T19:11:39.293Z,96592.03
2022-08-14T19:14:13.204Z,96592.78
2022-08-14T19:16:48.300Z,96599.09
2022-08-14T19:19:23.893Z,96595.34
2022-08-14T19:21:57.345Z,96599.34
2022-08-14T19:24:34.188Z,96599.66
2022-08-14T19:27:26.067Z,96599.59
2022-08-14T19:30:19.760Z,96591.63
2022-08-14T19:32:55.975Z,96595.09
2022-08-14T19:35:55.541Z,96601.31
2022-08-14T19:38:59.254Z,96596.22
2022-08-14T19:41:33.826Z,96608.44
2022-08-14T19:44:14.443Z,96603.69
2022-08-14T19:47:01.965Z,96600.25
2022-08-14T19:50:08.602Z,96596.81
2022-08-14T19:52:37.335Z,96596.31
2022-08-14T19:55:20.756Z,96598.25
2022-08-14T19:58:04.223Z,96601.31
2022-08-14T20:00:33.130Z,96604.97
2022-08-14T20:03:11.875Z,96607.81
2022-08-14T20:05:45.399Z,96599.69
2022-08-14T20:10:59.506Z,96605.69
2022-08-14T20:11:20.821Z,96607.31
2022-08-14T20:14:12.428Z,96610.75
2022-08-14T20:16:53.002Z,96606.81
2022-08-14T20:19:29.049Z,96613.09
2022-08-14T20:22:36.948Z,96606.97
2022-08-14T20:24:54.462Z,96605.16
2022-08-14T20:27:33.110Z,96612.47
2022-08-14T20:30:33.515Z,96607.81
2022-08-14T20:33:11.797Z,96611.16
2022-08-14T20:35:39.537Z,96612.25
2022-08-14T20:38:30.648Z,96611.97
2022-08-14T20:41:10.582Z,96617.84
2022-08-14T20:44:00.768Z,96617.03
2022-08-14T20:46:38.293Z,96618.56
2022-08-14T20:49:16.824Z,96619.06
2022-08-14T20:51:59.402Z,96614.00
2022-08-14T20:54:36.874Z,96614.19
2022-08-14T20:57:18.630Z,96619.88
2022-08-14T20:59:53.689Z,96615.31
2022-08-14T21:02:46.368Z,96622.41
2022-08-14T21:05:33.550Z,96623.41
2022-08-14T21:08:09.973Z,96630.53
2022-08-14T21:10:56.734Z,96631.03
2022-08-14T21:14:18.945Z,96634.06
2022-08-14T21:16:34.761Z,96636.38
2022-08-14T21:19:04.159Z,96639.41
2022-08-14T21:21:40.796Z,96639.41
2022-08-14T21:24:39.749Z,96644.91
2022-08-14T21:27:19.767Z,96643.28
2022-08-14T21:29:54.949Z,96643.06
2022-08-14T21:32:34.672Z,96639.81
2022-08-14T21:35:08.331Z,96649.66
2022-08-14T21:37:45.148Z,96649.81
2022-08-14T21:40:29.691Z,96644.13
2022-08-14T21:43:06.263Z,96633.16
2022-08-14T21:45:55.792Z,96641.69
2022-08-14T21:48:30.925Z,96644.13
2022-08-14T21:51:54.462Z,96646.53
2022-08-14T21:53:58.213Z,96650.97
2022-08-14T21:56:41.064Z,96646.31
2022-08-14T21:59:29.310Z,96656.47
2022-08-14T22:02:03.888Z,96652.00
2022-08-14T22:04:40.804Z,96651.72
2022-08-14T22:07:18.629Z,96652.72
2022-08-14T22:09:54.660Z,96658.72
2022-08-14T22:12:45.459Z,96655.19
2022-08-14T22:15:17.962Z,96655.47
2022-08-14T22:17:52.496Z,96651.78
2022-08-14T22:20:25.772Z,96650.53
2022-08-14T22:22:56.084Z,96653.06
2022-08-14T22:25:33.363Z,96654.69
2022-08-14T22:28:18.035Z,96659.25
2022-08-14T22:30:47.815Z,96654.19
2022-08-14T22:33:30.641Z,96664.22
2022-08-14T22:36:25.552Z,96655.22
2022-08-14T22:38:55.362Z,96658.81
2022-08-14T22:41:26.892Z,96652.31
2022-08-14T22:44:10.920Z,96658.13
2022-08-14T22:46:43.206Z,96659.50
2022-08-14T22:49:16.631Z,96660.94
2022-08-14T22:52:02.647Z,96659.28
2022-08-14T22:54:52.718Z,96670.03
2022-08-14T22:57:22.527Z,96664.34
2022-08-14T22:59:52.435Z,96657.50
2022-08-14T23:02:32.055Z,96660.63
2022-08-14T23:05:04.734Z,96664.25
2022-08-14T23:08:57.755Z,96660.25
2022-08-14T23:10:32.427Z,96656.69
2022-08-14T23:13:06.728Z,96660.53
2022-08-14T23:15:37.603Z,96663.63
2022-08-14T23:18:05.690Z,96663.34
2022-08-14T23:20:36.339Z,96666.81
2022-08-14T23:23:13.545Z,96656.16
2022-08-14T23:25:59.412Z,96657.13
2022-08-14T23:28:33.603Z,96658.25
2022-08-14T23:31:33.592Z,96668.06
2022-08-14T23:34:07.597Z,96663.63
2022-08-14T23:36:52.948Z,96664.47
2022-08-14T23:39:32.544Z,96666.88
2022-08-14T23:42:09.030Z,96662.25
2022-08-14T23:44:38.968Z,96666.06
2022-08-14T23:47:10.930Z,96666.06
2022-08-14T23:49:49.671Z,96663.56
2022-08-14T23:52:57.514Z,96661.34
2022-08-14T23:55:17.366Z,96662.53
2022-08-14T23:57:57.269Z,96660.47
